Canaan, IN (47224)

12:01 PM EDT on July 29, 2016 (GMT -0400)
Cross Plains 1 | | Change Station

Elev 906 ft 38.94 °N, 85.21 °W | Updated 42 seconds ago

Mostly Cloudy
Mostly Cloudy
87.1 °F
Feels Like 94 °F
N
1.1
Wind Variable Wind from South

Today
High -- | Low -- °F
--% Chance of Precip.
Yesterday
High -- | Low -- °F
Precip. -- in
Pressure 29.94 in
Visibility 7.0 miles
Clouds Scattered Clouds 1900 ft
Mostly Cloudy 25000 ft
Heat Index 94 °F
Dew Point 72 °F
Humidity 61%
Rainfall 0.00 in
Snow Depth Not available.
6:39 AM 8:54 PM
Waning Crescent, 21% visible
METAR KCVG 291552Z 20007KT 7SM SCT019 BKN250 27/22 A2997 RMK AO2 SLP137 T02670222
Pressure 29.94 in
Visibility 7.0 miles
Clouds Scattered Clouds 1900 ft
Mostly Cloudy 25000 ft
Heat Index 94 °F
Dew Point 72 °F
Humidity 61%
Rainfall 0.00 in
Snow Depth Not available.
6:39 AM 8:54 PM
Waning Crescent, 21% visible
METAR KCVG 291552Z 20007KT 7SM SCT019 BKN250 27/22 A2997 RMK AO2 SLP137 T02670222

10-Day Weather Forecast

Almanac

Astronomy

Jul. 29, 2016 Rise Set
Actual Time
Civil Twilight
Nautical Twilight
Astronomical Twilight
Moon
Length of Visible Light
Length of Day
Tomorrow will be .
, % of the Moon is Illuminated

Today's Extremes

State Highs State Lows

Community

WunderPhotos

Upload Photos

1,928,358 photos uploaded!

WunderBlog® & News

Nearby

Air Quality

  Air Quality AQ Index Pollutant
Not available.

Snow Depth

Station Depth Elevation

Earthquake Activity

City Distance Mag. Time & Date
Minimum magnitude displayed is 2.5.

Coastal Water Temperatures

Place Temperature

Stations

Nearby Weather Stations

Station Location Temp. Windchill Dew Point Humidity Wind Precip. Elev Updated Type
                   

Watches & Warnings

There are currently no watches in effect.